Time;durP1;ratioP1;P1;durP2;ratioP2;P2;SDS_P1;SDS_P2;PMS_P1;PMS_P2;Temp;Humidity;BMP_temperature;BMP_pressure;BME280_temperature;BME280_humidity;BME280_pressure;Samples;Min_cycle;Max_cycle;Signal;HPM_P1;HPM_P2
2023/07/02 00:01:12;;;;;;;17.55;7.45;;;15.80;99.90;;;;;;5041506;28;20053;-78
2023/07/02 00:03:38;;;;;;;19.05;8.18;;;15.70;99.90;;;;;;5035232;28;20038;-80
2023/07/02 00:06:04;;;;;;;17.63;7.93;;;15.70;99.90;;;;;;5032211;28;20366;-82
2023/07/02 00:08:29;;;;;;;16.17;7.88;;;15.60;99.90;;;;;;5045415;28;20044;-80
2023/07/02 00:10:55;;;;;;;20.83;8.02;;;15.60;99.90;;;;;;5028766;28;20041;-79
2023/07/02 00:13:21;;;;;;;19.73;7.93;;;15.60;99.90;;;;;;5055517;28;20048;-81
2023/07/02 00:15:47;;;;;;;19.13;8.05;;;15.60;99.90;;;;;;5061713;28;20488;-81
2023/07/02 00:18:16;;;;;;;19.00;7.97;;;15.60;99.90;;;;;;5044664;28;20083;-80
2023/07/02 00:20:45;;;;;;;22.83;7.90;;;15.60;99.90;;;;;;5056871;28;20431;-80
2023/07/02 00:23:11;;;;;;;19.20;8.05;;;15.50;99.90;;;;;;5047024;28;20136;-79
2023/07/02 00:25:37;;;;;;;21.13;8.05;;;15.90;99.90;;;;;;5066019;28;20115;-79
2023/07/02 00:28:03;;;;;;;21.48;7.95;;;15.50;99.90;;;;;;5044768;28;20508;-79
2023/07/02 00:30:29;;;;;;;22.30;8.00;;;15.50;99.90;;;;;;5046985;28;20040;-81
2023/07/02 00:32:55;;;;;;;19.05;7.75;;;15.60;99.90;;;;;;5064393;28;20040;-79
2023/07/02 00:35:21;;;;;;;24.60;8.57;;;15.60;99.90;;;;;;5055913;28;20040;-78
2023/07/02 00:37:47;;;;;;;26.33;8.20;;;16.90;99.90;;;;;;5071020;28;20032;-79
2023/07/02 00:40:13;;;;;;;24.05;8.75;;;15.50;99.90;;;;;;5068519;28;20481;-79
2023/07/02 00:42:38;;;;;;;26.83;7.97;;;15.50;99.90;;;;;;5058836;28;20069;-78
2023/07/02 00:45:05;;;;;;;25.30;8.20;;;15.50;99.90;;;;;;5037564;28;20045;-79
2023/07/02 00:47:35;;;;;;;22.35;8.82;;;15.40;99.90;;;;;;5015067;28;20075;-80
2023/07/02 00:50:01;;;;;;;28.65;9.02;;;15.50;99.90;;;;;;5022625;28;20059;-79
2023/07/02 00:52:27;;;;;;;22.23;8.43;;;15.50;99.90;;;;;;5018868;28;20993;-79
2023/07/02 00:54:53;;;;;;;28.77;8.48;;;15.50;99.90;;;;;;5025029;28;20044;-79
2023/07/02 00:57:19;;;;;;;26.25;8.20;;;15.60;99.90;;;;;;5009205;28;20063;-80
2023/07/02 00:59:44;;;;;;;20.95;8.35;;;16.40;99.90;;;;;;5032246;28;20148;-78
2023/07/02 01:02:10;;;;;;;20.88;7.70;;;15.40;99.90;;;;;;5037182;28;20124;-79
2023/07/02 01:04:37;;;;;;;22.73;8.82;;;15.40;99.90;;;;;;5034117;28;20044;-78
2023/07/02 01:07:08;;;;;;;22.52;8.27;;;16.20;99.90;;;;;;5030227;28;20588;-79
2023/07/02 01:09:34;;;;;;;24.83;9.27;;;15.40;99.90;;;;;;5039705;28;20060;-78
2023/07/02 01:12:07;;;;;;;27.27;9.15;;;15.30;99.90;;;;;;5050597;28;20033;-79
2023/07/02 01:14:38;;;;;;;24.65;8.90;;;15.30;99.90;;;;;;5033969;28;20057;-79
2023/07/02 01:17:05;;;;;;;29.88;9.43;;;15.30;99.90;;;;;;5057607;28;20535;-78
2023/07/02 01:19:51;;;;;;;24.23;9.45;;;15.20;99.90;;;;;;5038013;28;20480;-79
2023/07/02 01:22:19;;;;;;;25.00;9.38;;;15.20;99.90;;;;;;5057064;28;20075;-78
2023/07/02 01:24:47;;;;;;;24.27;8.63;;;15.20;99.90;;;;;;5046000;28;20102;-78
2023/07/02 01:27:13;;;;;;;28.25;9.60;;;15.20;99.90;;;;;;5057469;28;20057;-79
2023/07/02 01:29:39;;;;;;;23.83;9.07;;;15.10;99.90;;;;;;5063244;28;20426;-78
2023/07/02 01:32:05;;;;;;;20.27;8.75;;;15.10;99.90;;;;;;5055006;28;20113;-78
2023/07/02 01:34:31;;;;;;;28.55;9.70;;;15.10;99.90;;;;;;5064364;28;20059;-78
2023/07/02 01:36:56;;;;;;;30.00;10.18;;;15.10;99.90;;;;;;5044694;28;20418;-79
2023/07/02 01:39:22;;;;;;;27.50;9.40;;;15.10;99.90;;;;;;5032208;28;20048;-77
2023/07/02 01:41:52;;;;;;;35.60;10.38;;;15.00;99.90;;;;;;5035178;28;20037;-79
2023/07/02 01:44:19;;;;;;;31.20;9.60;;;15.00;99.90;;;;;;5023659;28;20067;-79
2023/07/02 01:46:48;;;;;;;28.88;9.82;;;15.30;99.90;;;;;;5039449;28;20090;-79
2023/07/02 01:49:15;;;;;;;30.30;9.48;;;15.90;99.90;;;;;;5034499;28;20141;-79
2023/07/02 01:51:44;;;;;;;30.90;10.65;;;14.90;99.90;;;;;;5032632;28;20034;-78
2023/07/02 01:54:09;;;;;;;28.65;10.05;;;14.90;99.90;;;;;;5031468;28;20052;-79
2023/07/02 01:56:35;;;;;;;27.70;9.00;;;14.80;99.90;;;;;;5033559;28;20049;-79
2023/07/02 01:59:01;;;;;;;28.67;10.32;;;14.80;99.90;;;;;;5030871;28;20056;-79
2023/07/02 02:01:27;;;;;;;32.70;8.80;;;14.80;99.90;;;;;;5031981;28;20049;-78
2023/07/02 02:03:53;;;;;;;29.33;10.23;;;15.10;99.90;;;;;;5033578;28;20068;-79
2023/07/02 02:06:18;;;;;;;29.35;10.00;;;14.80;99.90;;;;;;5030788;28;20413;-78
2023/07/02 02:08:44;;;;;;;26.85;9.63;;;14.70;99.90;;;;;;5032304;28;20044;-79
2023/07/02 02:11:10;;;;;;;29.77;8.98;;;14.70;99.90;;;;;;5034876;28;20044;-78
2023/07/02 02:13:35;;;;;;;31.25;9.65;;;14.70;99.90;;;;;;5051075;28;20040;-79
2023/07/02 02:16:01;;;;;;;31.38;9.45;;;15.20;99.90;;;;;;5041465;28;20062;-78
2023/07/02 02:18:27;;;;;;;27.40;9.13;;;14.60;99.90;;;;;;5058924;28;20033;-79
2023/07/02 02:20:52;;;;;;;24.35;9.40;;;15.20;99.90;;;;;;5057007;28;20033;-79
2023/07/02 02:23:18;;;;;;;32.58;10.68;;;14.90;99.90;;;;;;5062766;28;20088;-79
2023/07/02 02:25:43;;;;;;;32.58;11.02;;;14.60;99.90;;;;;;5053864;28;20032;-80
2023/07/02 02:28:09;;;;;;;33.05;10.07;;;14.70;99.90;;;;;;5039701;28;20105;-78
2023/07/02 02:30:34;;;;;;;27.42;9.38;;;14.40;99.90;;;;;;5045903;28;20141;-80
2023/07/02 02:33:00;;;;;;;31.90;9.27;;;14.50;99.90;;;;;;5049115;28;20072;-82
2023/07/02 02:35:26;;;;;;;29.08;9.73;;;14.40;99.90;;;;;;5056066;28;20091;-79
2023/07/02 02:37:51;;;;;;;25.92;9.35;;;14.30;99.90;;;;;;5037790;28;20051;-80
2023/07/02 02:40:17;;;;;;;29.08;10.35;;;14.30;99.90;;;;;;5045094;28;20040;-78
2023/07/02 02:42:43;;;;;;;31.23;9.55;;;14.30;99.90;;;;;;5032682;28;20605;-79
2023/07/02 02:45:08;;;;;;;25.90;9.20;;;14.30;99.90;;;;;;5033152;28;20038;-80
2023/07/02 02:47:34;;;;;;;28.08;10.05;;;14.20;99.90;;;;;;5017165;28;20406;-79
2023/07/02 02:50:00;;;;;;;33.80;9.88;;;14.20;99.90;;;;;;5031274;28;20120;-80
2023/07/02 02:52:25;;;;;;;30.60;9.73;;;14.20;99.90;;;;;;5028677;28;20446;-79
2023/07/02 02:54:54;;;;;;;27.90;9.88;;;14.20;99.90;;;;;;5031307;28;20076;-79
2023/07/02 02:57:19;;;;;;;34.15;9.57;;;14.10;99.90;;;;;;5027574;28;20057;-80
2023/07/02 02:59:46;;;;;;;19.58;9.73;;;15.30;99.90;;;;;;5020560;28;20068;-79
2023/07/02 03:02:11;;;;;;;26.83;9.32;;;14.10;99.90;;;;;;5017246;28;20033;-78
2023/07/02 03:04:39;;;;;;;28.13;9.52;;;14.10;99.90;;;;;;5030911;28;20503;-79
2023/07/02 03:07:06;;;;;;;29.85;10.15;;;14.10;99.90;;;;;;5031464;28;20045;-80
2023/07/02 03:09:32;;;;;;;25.90;9.23;;;14.10;99.90;;;;;;5031509;28;20045;-79
2023/07/02 03:11:58;;;;;;;34.05;9.82;;;14.00;99.90;;;;;;5014004;28;20087;-79
2023/07/02 03:14:24;;;;;;;33.25;9.65;;;14.30;99.90;;;;;;5029415;28;20045;-81
2023/07/02 03:16:50;;;;;;;28.80;9.68;;;13.60;99.90;;;;;;5029252;28;20033;-79
2023/07/02 03:19:16;;;;;;;30.63;11.18;;;15.10;99.90;;;;;;5029133;28;20045;-80
2023/07/02 03:21:45;;;;;;;31.15;9.45;;;13.90;99.90;;;;;;5029890;28;20094;-78
2023/07/02 03:24:13;;;;;;;24.33;9.10;;;14.00;99.90;;;;;;5029231;28;20068;-81
2023/07/02 03:26:43;;;;;;;27.00;9.63;;;15.30;99.90;;;;;;5030808;28;20030;-80
2023/07/02 03:29:09;;;;;;;33.20;9.52;;;14.00;99.90;;;;;;5032479;28;20096;-79
2023/07/02 03:31:34;;;;;;;25.70;9.63;;;14.00;99.90;;;;;;5030993;28;20183;-81
2023/07/02 03:34:09;;;;;;;25.77;9.88;;;13.90;99.90;;;;;;5029377;28;21084;-79
2023/07/02 03:36:35;;;;;;;28.85;9.98;;;15.20;99.90;;;;;;5032734;28;20040;-80
2023/07/02 03:39:01;;;;;;;27.58;9.13;;;14.00;99.90;;;;;;5034495;28;20041;-81
2023/07/02 03:41:27;;;;;;;30.05;10.90;;;14.80;99.90;;;;;;5020581;28;20047;-80
2023/07/02 03:43:53;;;;;;;25.17;9.25;;;13.90;99.90;;;;;;5038582;28;20489;-80
2023/07/02 03:46:19;;;;;;;29.20;10.85;;;13.90;99.90;;;;;;5051225;28;20048;-79
2023/07/02 03:48:44;;;;;;;28.08;9.52;;;13.90;99.90;;;;;;5042746;28;20090;-80
2023/07/02 03:51:12;;;;;;;28.38;8.77;;;13.90;99.90;;;;;;5047299;28;20053;-80
2023/07/02 03:53:38;;;;;;;24.73;9.20;;;13.90;99.90;;;;;;5034233;28;20450;-78
2023/07/02 03:56:04;;;;;;;24.92;9.10;;;14.00;99.90;;;;;;5057109;28;20056;-83
2023/07/02 03:58:29;;;;;;;26.60;9.52;;;14.00;99.90;;;;;;5051466;28;20040;-81
2023/07/02 04:00:55;;;;;;;25.55;9.30;;;14.00;99.90;;;;;;5046770;28;20106;-81
2023/07/02 04:03:20;;;;;;;26.85;8.77;;;14.10;99.90;;;;;;5045445;28;20036;-80
2023/07/02 04:05:46;;;;;;;30.00;8.70;;;14.00;99.90;;;;;;5039302;28;20433;-79
2023/07/02 04:08:12;;;;;;;26.20;9.05;;;14.10;99.90;;;;;;5001696;28;20478;-81
2023/07/02 04:10:37;;;;;;;34.42;9.70;;;14.30;99.90;;;;;;5037428;28;20663;-80
2023/07/02 04:13:03;;;;;;;26.95;9.80;;;14.00;99.90;;;;;;5032274;28;20054;-79
2023/07/02 04:15:28;;;;;;;23.48;8.07;;;14.10;99.90;;;;;;5033216;28;20120;-80
2023/07/02 04:17:54;;;;;;;29.15;9.43;;;14.10;99.90;;;;;;5033630;28;20493;-79
2023/07/02 04:20:20;;;;;;;24.95;9.55;;;14.20;99.90;;;;;;5017173;28;20112;-79
2023/07/02 04:22:46;;;;;;;26.60;9.27;;;14.20;99.90;;;;;;5014049;28;20148;-79
2023/07/02 04:25:16;;;;;;;36.63;9.52;;;14.20;99.90;;;;;;5033805;28;20550;-81
2023/07/02 04:27:43;;;;;;;25.02;8.77;;;14.20;99.90;;;;;;5023903;28;20049;-79
2023/07/02 04:30:09;;;;;;;31.13;9.52;;;14.20;99.90;;;;;;5034866;28;20132;-79
2023/07/02 04:32:36;;;;;;;26.60;9.15;;;14.20;99.90;;;;;;5019556;28;20053;-79
2023/07/02 04:35:02;;;;;;;25.17;8.73;;;14.20;99.90;;;;;;5045000;28;20058;-79
2023/07/02 04:37:28;;;;;;;28.35;9.60;;;14.20;99.90;;;;;;5020209;28;20124;-79
2023/07/02 04:39:54;;;;;;;23.80;9.40;;;14.20;99.90;;;;;;5043192;28;20041;-80
2023/07/02 04:42:20;;;;;;;24.92;8.48;;;15.00;99.90;;;;;;5038571;28;20099;-83
2023/07/02 04:44:45;;;;;;;28.20;8.95;;;14.10;99.90;;;;;;5040352;28;20079;-83
2023/07/02 04:47:11;;;;;;;26.02;8.27;;;14.10;99.90;;;;;;5042012;28;20040;-82
2023/07/02 04:49:38;;;;;;;28.80;9.10;;;14.20;99.90;;;;;;5049149;28;20041;-80
2023/07/02 04:52:03;;;;;;;30.17;9.35;;;14.60;99.90;;;;;;5025956;28;20037;-79
2023/07/02 04:54:29;;;;;;;26.60;8.90;;;14.30;99.90;;;;;;5049947;28;20041;-77
2023/07/02 04:56:55;;;;;;;32.72;9.10;;;14.30;99.90;;;;;;5048012;28;20056;-79
2023/07/02 04:59:21;;;;;;;27.90;8.80;;;14.40;99.90;;;;;;5041978;28;20482;-82
2023/07/02 05:01:47;;;;;;;35.03;9.45;;;14.40;99.90;;;;;;5049087;28;20041;-78
2023/07/02 05:04:13;;;;;;;22.13;8.10;;;14.40;99.90;;;;;;5050944;28;20142;-79
2023/07/02 05:06:39;;;;;;;21.30;7.80;;;14.60;99.90;;;;;;5039342;28;20123;-80
2023/07/02 05:09:04;;;;;;;19.58;7.03;;;15.80;99.90;;;;;;5057107;28;20032;-79
2023/07/02 05:11:30;;;;;;;17.65;6.15;;;14.70;99.90;;;;;;5019787;28;20045;-79
2023/07/02 05:13:56;;;;;;;16.73;5.80;;;15.00;99.90;;;;;;5054850;28;20048;-78
2023/07/02 05:16:21;;;;;;;23.10;7.07;;;14.80;99.90;;;;;;5037833;28;20041;-79
2023/07/02 05:18:47;;;;;;;20.25;7.10;;;15.40;99.90;;;;;;5030978;28;20091;-77
2023/07/02 05:21:17;;;;;;;21.52;5.80;;;14.80;99.90;;;;;;5015761;28;20052;-82
2023/07/02 05:23:42;;;;;;;26.65;7.50;;;13.30;99.90;;;;;;5015434;28;20049;-78
2023/07/02 05:26:08;;;;;;;24.58;6.90;;;14.90;99.90;;;;;;5034163;28;20038;-79
2023/07/02 05:28:34;;;;;;;19.52;6.60;;;14.90;99.90;;;;;;5019746;28;20052;-79
2023/07/02 05:31:02;;;;;;;13.95;5.80;;;14.90;99.90;;;;;;5004332;28;20049;-80
2023/07/02 05:33:28;;;;;;;19.92;5.72;;;14.90;99.90;;;;;;5037594;28;20051;-80
2023/07/02 05:35:54;;;;;;;20.25;6.18;;;15.00;99.90;;;;;;5036460;28;20036;-79
2023/07/02 05:38:19;;;;;;;20.55;6.15;;;15.10;99.90;;;;;;5029748;28;20440;-80
2023/07/02 05:40:46;;;;;;;17.52;6.60;;;15.10;99.90;;;;;;5048798;28;20046;-81
2023/07/02 05:43:11;;;;;;;17.33;6.07;;;15.10;99.90;;;;;;5048714;28;20133;-79
2023/07/02 05:45:37;;;;;;;26.42;6.93;;;15.10;99.90;;;;;;5055065;28;20074;-80
2023/07/02 05:48:03;;;;;;;23.05;6.78;;;15.20;99.90;;;;;;5033863;28;20053;-80
2023/07/02 05:50:29;;;;;;;21.77;6.47;;;15.20;99.90;;;;;;5045821;28;20757;-81
2023/07/02 05:52:54;;;;;;;20.38;6.45;;;16.80;99.90;;;;;;5043235;28;20037;-81
2023/07/02 05:55:20;;;;;;;15.35;5.95;;;15.10;99.90;;;;;;5055808;28;20595;-79
2023/07/02 05:57:46;;;;;;;16.75;7.05;;;15.10;99.90;;;;;;5047353;28;20064;-81
2023/07/02 06:00:12;;;;;;;17.08;6.80;;;15.10;99.90;;;;;;5035449;28;20037;-79
2023/07/02 06:02:38;;;;;;;14.95;6.13;;;15.10;99.90;;;;;;5046866;28;20064;-80
2023/07/02 06:05:04;;;;;;;20.27;7.40;;;15.10;99.90;;;;;;5021880;28;20042;-80
2023/07/02 06:07:30;;;;;;;20.52;6.32;;;15.10;99.90;;;;;;5052273;28;20052;-79
2023/07/02 06:09:55;;;;;;;20.50;7.07;;;15.10;99.90;;;;;;5047057;28;20404;-80
2023/07/02 06:12:22;;;;;;;24.02;6.82;;;15.10;99.90;;;;;;5056286;28;20037;-78
2023/07/02 06:14:48;;;;;;;19.80;7.00;;;15.10;99.90;;;;;;5060890;28;20077;-79
2023/07/02 06:17:14;;;;;;;21.45;7.10;;;15.20;99.90;;;;;;5037165;28;20048;-81
2023/07/02 06:19:39;;;;;;;22.45;7.07;;;15.20;99.90;;;;;;5042481;28;20059;-79
2023/07/02 06:22:05;;;;;;;19.00;6.10;;;15.90;99.90;;;;;;5057658;28;20496;-81
2023/07/02 06:24:31;;;;;;;18.20;6.20;;;15.40;99.90;;;;;;5057689;28;20419;-78
2023/07/02 06:26:56;;;;;;;21.00;7.07;;;15.50;99.90;;;;;;5056225;28;20055;-79
2023/07/02 06:29:24;;;;;;;17.90;7.18;;;15.60;99.90;;;;;;5038586;28;20136;-79
2023/07/02 06:31:51;;;;;;;25.88;6.80;;;15.60;99.90;;;;;;5060459;28;20033;-79
2023/07/02 06:34:16;;;;;;;19.58;6.95;;;15.70;99.90;;;;;;5058137;28;20041;-79
2023/07/02 06:36:43;;;;;;;17.73;6.38;;;15.70;99.90;;;;;;5036279;28;20099;-81
2023/07/02 06:39:11;;;;;;;18.67;6.07;;;15.80;99.90;;;;;;5031562;28;20412;-78
2023/07/02 06:41:37;;;;;;;19.98;6.35;;;15.70;99.90;;;;;;5034359;28;20037;-80
2023/07/02 06:44:03;;;;;;;17.95;5.88;;;15.80;99.90;;;;;;5033719;28;20404;-79
2023/07/02 06:46:29;;;;;;;14.85;5.57;;;15.80;99.90;;;;;;5038837;28;20049;-82
2023/07/02 06:48:55;;;;;;;13.98;4.20;;;15.70;99.90;;;;;;5034722;28;20084;-83
2023/07/02 06:51:21;;;;;;;14.23;5.22;;;15.80;99.90;;;;;;5015563;28;20053;-83
2023/07/02 06:53:47;;;;;;;12.80;4.05;;;15.80;99.90;;;;;;5034439;28;20408;-80
2023/07/02 06:56:13;;;;;;;16.42;4.32;;;15.80;99.90;;;;;;5032147;28;20037;-81
2023/07/02 06:58:45;;;;;;;14.27;3.63;;;15.80;99.90;;;;;;5035521;28;20513;-81
2023/07/02 07:01:11;;;;;;;16.15;4.03;;;15.90;99.90;;;;;;5030773;28;20057;-81
2023/07/02 07:03:36;;;;;;;9.95;3.13;;;16.00;99.90;;;;;;5016710;28;20041;-81
2023/07/02 07:06:02;;;;;;;12.90;3.78;;;16.10;99.90;;;;;;5031163;28;20045;-81
2023/07/02 07:08:28;;;;;;;12.32;3.50;;;16.10;99.90;;;;;;5035309;28;20048;-80
2023/07/02 07:10:54;;;;;;;14.13;3.72;;;16.30;99.90;;;;;;5023485;28;20037;-82
2023/07/02 07:13:20;;;;;;;13.07;4.10;;;16.30;99.90;;;;;;5035512;28;20045;-80
2023/07/02 07:15:46;;;;;;;14.30;3.20;;;16.30;99.90;;;;;;5031480;28;20404;-80
2023/07/02 07:18:12;;;;;;;14.60;3.33;;;16.30;99.90;;;;;;5034163;28;21722;-79
2023/07/02 07:20:40;;;;;;;8.55;3.15;;;16.40;99.90;;;;;;5032542;28;20037;-85
2023/07/02 07:23:05;;;;;;;16.02;3.67;;;16.50;99.90;;;;;;5034049;28;20049;-81
2023/07/02 07:25:34;;;;;;;14.30;4.25;;;16.50;99.90;;;;;;5038401;28;20041;-81
2023/07/02 07:28:00;;;;;;;13.93;3.80;;;16.50;99.90;;;;;;5047433;28;20524;-82
2023/07/02 07:30:26;;;;;;;13.27;3.17;;;16.60;99.90;;;;;;5030865;28;20049;-80
2023/07/02 07:32:52;;;;;;;9.82;3.35;;;16.60;99.90;;;;;;5039728;28;20048;-81
2023/07/02 07:35:20;;;;;;;12.40;3.38;;;16.60;99.90;;;;;;5018122;28;20071;-82
2023/07/02 07:37:45;;;;;;;11.00;3.20;;;16.60;99.90;;;;;;5039299;28;20037;-80
2023/07/02 07:40:12;;;;;;;16.45;3.85;;;16.50;99.90;;;;;;5027374;28;20049;-80
2023/07/02 07:42:37;;;;;;;11.18;3.40;;;16.60;99.90;;;;;;5018919;28;20418;-79
2023/07/02 07:45:04;;;;;;;16.90;4.03;;;16.60;99.90;;;;;;5039959;28;20461;-81
2023/07/02 07:47:29;;;;;;;12.98;4.10;;;16.70;99.90;;;;;;5028642;28;20033;-78
2023/07/02 07:49:55;;;;;;;13.68;3.92;;;16.70;99.90;;;;;;5035092;28;20053;-79
2023/07/02 07:52:21;;;;;;;10.90;3.40;;;16.70;99.90;;;;;;5020966;28;20042;-78
2023/07/02 07:54:47;;;;;;;13.88;3.00;;;16.80;99.90;;;;;;5034648;28;20133;-78
2023/07/02 07:57:14;;;;;;;8.73;3.35;;;16.80;99.90;;;;;;5037224;28;20064;-78
2023/07/02 07:59:40;;;;;;;15.50;4.30;;;16.90;99.90;;;;;;5045283;28;20041;-80
2023/07/02 08:02:06;;;;;;;13.05;3.65;;;16.90;99.90;;;;;;5059450;28;20081;-80
2023/07/02 08:04:32;;;;;;;10.65;3.63;;;16.90;99.90;;;;;;5068063;28;20037;-79
2023/07/02 08:06:57;;;;;;;10.23;3.22;;;16.90;99.90;;;;;;5059067;28;20098;-78
2023/07/02 08:09:24;;;;;;;12.05;3.42;;;17.00;99.90;;;;;;5046972;28;20040;-77
2023/07/02 08:11:50;;;;;;;11.55;3.33;;;16.90;99.90;;;;;;5033133;28;20504;-76
2023/07/02 08:14:19;;;;;;;13.32;3.80;;;16.90;99.90;;;;;;5042395;28;20050;-77
2023/07/02 08:16:45;;;;;;;11.98;3.28;;;16.80;99.90;;;;;;5022084;28;20060;-80
2023/07/02 08:19:10;;;;;;;11.70;3.42;;;16.80;99.90;;;;;;5037635;28;20037;-77
2023/07/02 08:21:36;;;;;;;10.43;3.22;;;16.90;99.90;;;;;;5024760;28;20068;-80
2023/07/02 08:24:03;;;;;;;12.48;3.45;;;16.90;99.90;;;;;;5030694;28;20123;-78
2023/07/02 08:26:28;;;;;;;9.10;3.28;;;16.80;99.90;;;;;;5051181;28;20041;-80
2023/07/02 08:28:54;;;;;;;10.23;3.88;;;16.80;99.90;;;;;;5036670;28;20484;-78
2023/07/02 08:31:20;;;;;;;13.30;3.72;;;16.80;99.90;;;;;;5015130;28;20041;-78
2023/07/02 08:33:45;;;;;;;16.10;4.75;;;16.80;99.90;;;;;;5048754;28;20079;-78
2023/07/02 08:36:13;;;;;;;14.50;4.05;;;16.70;99.90;;;;;;5052166;28;20036;-83
2023/07/02 08:38:41;;;;;;;11.70;4.05;;;16.70;99.90;;;;;;5063974;28;20075;-79
2023/07/02 08:41:07;;;;;;;12.98;4.32;;;16.70;99.90;;;;;;5046456;28;20037;-78
2023/07/02 08:43:33;;;;;;;15.50;4.35;;;16.60;99.90;;;;;;5053024;28;20101;-77
2023/07/02 08:45:59;;;;;;;16.77;4.22;;;16.50;99.90;;;;;;5061254;28;20441;-81
2023/07/02 08:48:28;;;;;;;11.95;4.68;;;16.50;99.90;;;;;;5049152;28;20119;-77
2023/07/02 08:50:54;;;;;;;14.98;4.55;;;16.40;99.90;;;;;;5040445;28;20520;-78
2023/07/02 08:53:25;;;;;;;14.65;4.55;;;16.30;99.90;;;;;;5028415;28;20068;-79
2023/07/02 08:55:50;;;;;;;11.90;4.53;;;16.30;99.90;;;;;;5057516;28;20045;-79
2023/07/02 08:58:16;;;;;;;12.35;4.03;;;15.50;99.90;;;;;;5046861;28;20047;-77
2023/07/02 09:01:09;;;;;;;10.73;3.28;;;16.40;99.90;;;;;;5063652;28;20056;-79
2023/07/02 09:03:38;;;;;;;13.30;3.95;;;16.40;99.90;;;;;;5048594;28;20048;-77
2023/07/02 09:06:09;;;;;;;12.82;3.63;;;16.50;99.90;;;;;;5060308;28;20044;-78
2023/07/02 09:08:35;;;;;;;17.05;3.58;;;16.60;99.90;;;;;;4697430;28;9999636;-80
2023/07/02 09:11:12;;;;;;;12.50;2.67;;;16.70;99.90;;;;;;5061569;28;20041;-76
2023/07/02 09:13:58;;;;;;;15.88;3.58;;;16.70;99.90;;;;;;5055189;28;20081;-81
2023/07/02 09:16:29;;;;;;;16.13;3.67;;;16.60;99.90;;;;;;5055117;28;20044;-78
2023/07/02 09:18:59;;;;;;;13.02;4.10;;;16.70;99.90;;;;;;5051575;28;20044;-78
2023/07/02 09:21:39;;;;;;;12.15;4.40;;;16.80;99.90;;;;;;5059980;28;20526;-82
2023/07/02 09:24:16;;;;;;;12.75;2.90;;;16.90;99.90;;;;;;5030330;28;20037;-74
2023/07/02 09:26:44;;;;;;;13.13;3.10;;;17.10;99.90;;;;;;5058694;28;20044;-79
2023/07/02 09:29:09;;;;;;;7.80;2.92;;;17.40;99.90;;;;;;5053799;28;20047;-81
2023/07/02 09:31:46;;;;;;;10.32;2.78;;;17.20;99.90;;;;;;5040852;28;20037;-75
2023/07/02 09:34:12;;;;;;;7.35;2.45;;;17.10;99.90;;;;;;5044361;28;20135;-76
2023/07/02 09:36:40;;;;;;;10.30;3.33;;;17.10;99.90;;;;;;5043440;28;20064;-78
2023/07/02 09:39:22;;;;;;;13.10;3.72;;;17.20;99.90;;;;;;5058376;28;20399;-79
2023/07/02 09:41:49;;;;;;;15.55;3.08;;;17.30;99.90;;;;;;5053843;28;20068;-76
2023/07/02 09:44:16;;;;;;;10.95;4.00;;;17.50;99.90;;;;;;5055354;28;20036;-79
2023/07/02 09:46:53;;;;;;;11.40;3.75;;;17.60;99.90;;;;;;5027999;28;20053;-75
2023/07/02 09:49:22;;;;;;;12.77;2.88;;;17.60;99.90;;;;;;5007598;28;20045;-78
2023/07/02 09:51:48;;;;;;;9.15;3.05;;;17.60;99.90;;;;;;5025409;28;20053;-80
2023/07/02 09:54:13;;;;;;;10.02;3.65;;;17.60;99.90;;;;;;5047384;28;20052;-82
2023/07/02 09:56:40;;;;;;;9.77;2.65;;;17.70;99.90;;;;;;5047743;28;20052;-80
2023/07/02 09:59:06;;;;;;;12.18;3.63;;;17.60;99.90;;;;;;5041934;28;20049;-77
2023/07/02 10:01:31;;;;;;;13.77;3.90;;;17.60;99.90;;;;;;5055977;28;20495;-80
2023/07/02 10:03:57;;;;;;;16.90;3.47;;;17.70;99.90;;;;;;5059496;28;20029;-80
2023/07/02 10:06:23;;;;;;;10.27;3.30;;;17.80;99.90;;;;;;5035231;28;20056;-81
2023/07/02 10:08:55;;;;;;;13.90;3.60;;;17.80;99.90;;;;;;5046670;28;20048;-79
2023/07/02 10:11:34;;;;;;;5.85;2.65;;;17.80;99.90;;;;;;5045295;28;20539;-79
2023/07/02 10:14:00;;;;;;;8.35;2.53;;;17.70;99.90;;;;;;5056601;28;20040;-77
2023/07/02 10:16:31;;;;;;;13.35;4.03;;;17.70;99.90;;;;;;5055655;28;20048;-78
2023/07/02 10:19:09;;;;;;;8.68;3.60;;;17.60;99.90;;;;;;5046631;28;20076;-74
2023/07/02 10:21:35;;;;;;;11.02;3.88;;;17.70;99.90;;;;;;5049346;28;20460;-75
2023/07/02 10:24:14;;;;;;;8.23;2.80;;;18.30;99.90;;;;;;5035787;28;20524;-76
2023/07/02 10:26:58;;;;;;;7.18;2.38;;;17.90;99.90;;;;;;5041233;28;20507;-78
2023/07/02 10:29:25;;;;;;;8.40;2.22;;;18.00;99.90;;;;;;4688529;28;9999729;-75
2023/07/02 10:31:52;;;;;;;7.70;3.10;;;18.10;99.90;;;;;;5055203;28;20044;-74
2023/07/02 10:34:33;;;;;;;8.63;3.20;;;18.10;99.90;;;;;;5039965;28;21761;-75
2023/07/02 10:37:03;;;;;;;8.57;2.70;;;18.00;99.90;;;;;;5040156;28;20049;-78
2023/07/02 10:39:38;;;;;;;11.20;2.75;;;18.10;99.90;;;;;;5038825;28;20389;-81
2023/07/02 10:42:08;;;;;;;9.00;2.90;;;18.20;99.90;;;;;;5037580;28;20053;-77
2023/07/02 10:44:35;;;;;;;10.90;3.63;;;18.20;99.90;;;;;;5048611;28;20128;-78
2023/07/02 10:47:04;;;;;;;12.05;3.65;;;18.20;99.90;;;;;;5041523;28;20060;-80
2023/07/02 10:49:33;;;;;;;12.95;3.20;;;18.20;99.90;;;;;;5048210;28;20076;-78
2023/07/02 10:52:03;;;;;;;8.27;3.25;;;18.10;99.90;;;;;;5041361;28;22103;-81
2023/07/02 10:54:42;;;;;;;13.10;3.85;;;18.20;99.90;;;;;;5055479;28;20508;-78
2023/07/02 10:57:09;;;;;;;11.10;4.25;;;18.30;99.90;;;;;;5054112;28;20194;-78
2023/07/02 10:59:35;;;;;;;14.77;4.55;;;18.30;99.90;;;;;;5049401;28;20119;-78
2023/07/02 11:02:02;;;;;;;16.48;3.45;;;18.40;99.90;;;;;;5054609;28;20124;-79
2023/07/02 11:04:28;;;;;;;13.40;3.20;;;18.40;99.90;;;;;;5045526;28;20041;-77
2023/07/02 11:06:54;;;;;;;11.68;2.85;;;18.40;99.90;;;;;;5058488;28;20040;-79
2023/07/02 11:09:23;;;;;;;7.00;2.67;;;18.40;99.90;;;;;;5038413;28;20484;-78
2023/07/02 11:11:51;;;;;;;12.32;3.55;;;18.40;99.90;;;;;;5052173;28;20060;-81
2023/07/02 11:14:33;;;;;;;9.18;3.03;;;18.50;99.90;;;;;;5048399;28;20043;-79
2023/07/02 11:17:02;;;;;;;13.05;3.90;;;18.60;99.90;;;;;;5018579;28;20515;-79
2023/07/02 11:19:27;;;;;;;12.90;2.60;;;18.70;99.90;;;;;;5034117;28;20110;-78
2023/07/02 11:22:02;;;;;;;11.10;2.22;;;18.70;99.90;;;;;;5057090;28;20033;-78
2023/07/02 11:24:46;;;;;;;8.25;1.90;;;18.60;99.90;;;;;;5036111;28;20037;-79
2023/07/02 11:27:21;;;;;;;10.45;2.65;;;18.70;99.90;;;;;;5047322;28;20049;-79
2023/07/02 11:29:47;;;;;;;10.18;2.65;;;18.70;99.90;;;;;;5045300;28;20420;-81
2023/07/02 11:32:14;;;;;;;10.88;2.58;;;18.60;99.90;;;;;;5057609;28;20045;-81
2023/07/02 11:34:40;;;;;;;10.25;2.60;;;18.50;99.90;;;;;;5047101;28;20037;-78
2023/07/02 11:37:06;;;;;;;9.80;2.72;;;18.40;99.90;;;;;;5059158;28;20056;-77
2023/07/02 11:39:32;;;;;;;6.18;2.47;;;18.40;99.90;;;;;;5060219;28;20045;-80
2023/07/02 11:41:58;;;;;;;10.00;2.47;;;18.40;99.90;;;;;;5047550;28;20041;-78
2023/07/02 11:44:24;;;;;;;9.98;2.15;;;18.40;99.90;;;;;;5038824;28;20057;-78
2023/07/02 11:46:52;;;;;;;7.25;2.05;;;18.50;99.90;;;;;;5046238;28;20481;-78
2023/07/02 11:49:18;;;;;;;10.27;2.13;;;18.50;99.80;;;;;;5062723;28;20090;-80
2023/07/02 11:51:48;;;;;;;8.90;2.30;;;18.40;99.90;;;;;;5043070;28;20049;-79
2023/07/02 11:54:15;;;;;;;9.20;2.30;;;18.40;99.90;;;;;;5059013;28;20045;-79
2023/07/02 11:56:42;;;;;;;6.57;2.45;;;18.40;99.90;;;;;;5064217;28;20680;-77
2023/07/02 11:59:08;;;;;;;8.80;2.30;;;18.40;99.90;;;;;;5056463;28;20389;-79
2023/07/02 12:01:34;;;;;;;7.50;2.10;;;18.30;99.40;;;;;;5057571;28;20091;-77
2023/07/02 12:03:59;;;;;;;9.88;2.08;;;18.40;99.50;;;;;;5054575;28;20041;-81
2023/07/02 12:06:25;;;;;;;7.75;2.13;;;19.50;99.60;;;;;;5061357;28;20116;-79
2023/07/02 12:08:51;;;;;;;7.32;1.88;;;18.60;99.60;;;;;;5056109;28;20044;-81
2023/07/02 12:11:16;;;;;;;10.88;2.47;;;18.50;99.90;;;;;;5059221;28;20049;-78
2023/07/02 12:13:42;;;;;;;5.93;2.47;;;18.70;99.90;;;;;;5048310;28;20045;-77
2023/07/02 12:16:08;;;;;;;7.18;2.47;;;18.40;99.90;;;;;;5060150;28;20083;-80
2023/07/02 12:18:33;;;;;;;5.55;2.30;;;18.30;99.90;;;;;;5061363;28;20057;-80
2023/07/02 12:20:59;;;;;;;7.68;1.88;;;18.30;99.90;;;;;;5054121;28;20041;-80
2023/07/02 12:23:25;;;;;;;8.07;2.47;;;18.30;99.90;;;;;;5056517;28;20048;-78
2023/07/02 12:25:51;;;;;;;8.70;2.35;;;18.30;99.90;;;;;;5063950;28;20045;-81
2023/07/02 12:28:16;;;;;;;9.13;2.33;;;18.30;99.50;;;;;;5025391;28;20468;-80
2023/07/02 12:30:45;;;;;;;6.32;2.30;;;18.30;99.60;;;;;;5054177;28;20044;-79
2023/07/02 12:33:10;;;;;;;7.25;2.38;;;18.20;99.80;;;;;;5016588;28;20484;-80
2023/07/02 12:35:36;;;;;;;6.30;3.72;;;18.10;99.50;;;;;;5045380;28;20055;-78
2023/07/02 12:38:03;;;;;;;9.65;2.80;;;18.00;99.90;;;;;;5050209;28;20037;-79